createdAt,value
2022-11-03T00:00:11.487Z,11.07
2022-11-03T00:05:14.424Z,10.10
2022-11-03T00:10:16.182Z,12.27
2022-11-03T00:15:17.868Z,10.88
2022-11-03T00:20:19.527Z,10.38
2022-11-03T00:25:21.266Z,11.02
2022-11-03T00:30:23.002Z,10.88
2022-11-03T00:35:24.719Z,11.82
2022-11-03T00:40:26.447Z,9.80
2022-11-03T00:45:28.158Z,12.13
2022-11-03T00:50:29.930Z,10.90
2022-11-03T00:55:31.595Z,10.00
2022-11-03T01:00:33.339Z,10.43
2022-11-03T01:05:35.044Z,10.93
2022-11-03T01:10:37.341Z,11.27
2022-11-03T01:15:39.101Z,11.15
2022-11-03T01:20:40.814Z,10.40
2022-11-03T01:25:42.566Z,12.00
2022-11-03T01:30:44.312Z,13.48
2022-11-03T01:35:46.046Z,9.68
2022-11-03T01:40:47.731Z,12.07
2022-11-03T01:45:56.845Z,10.02
2022-11-03T01:50:59.128Z,10.73
2022-11-03T01:56:02.747Z,10.02
2022-11-03T02:01:04.677Z,9.55
2022-11-03T02:06:07.496Z,10.70
2022-11-03T02:11:09.256Z,10.63
2022-11-03T02:16:11.038Z,11.07
2022-11-03T02:21:21.968Z,9.88
2022-11-03T02:26:23.777Z,11.30
2022-11-03T02:31:41.832Z,10.63
2022-11-03T02:36:51.588Z,11.90
2022-11-03T02:41:56.336Z,11.20
2022-11-03T02:47:01.458Z,10.13
2022-11-03T02:52:04.757Z,11.68
2022-11-03T02:57:14.428Z,11.40
2022-11-03T03:02:22.054Z,9.93
2022-11-03T03:07:32.514Z,9.60
2022-11-03T03:12:37.818Z,10.25
2022-11-03T03:17:49.870Z,11.00
2022-11-03T03:23:11.441Z,10.23
2022-11-03T03:28:37.353Z,10.50
2022-11-03T03:33:43.417Z,10.07
2022-11-03T03:38:58.744Z,10.45
2022-11-03T03:44:06.809Z,10.50
2022-11-03T03:49:08.966Z,11.20
2022-11-03T03:54:10.640Z,9.77
2022-11-03T03:59:12.354Z,9.60
2022-11-03T04:04:14.050Z,10.80
2022-11-03T04:09:15.745Z,10.70
2022-11-03T04:14:17.592Z,10.45
2022-11-03T04:19:19.297Z,8.73
2022-11-03T04:24:21.006Z,9.97
2022-11-03T04:29:22.684Z,9.40
2022-11-03T04:34:24.959Z,9.60
2022-11-03T04:39:26.697Z,10.15
2022-11-03T04:44:29.693Z,10.63
2022-11-03T04:49:31.356Z,9.57
2022-11-03T04:54:33.068Z,9.23
2022-11-03T04:59:34.867Z,10.63
2022-11-03T05:04:36.712Z,9.57
2022-11-03T05:09:41.887Z,10.10
2022-11-03T05:14:44.937Z,10.43
2022-11-03T05:19:46.626Z,9.00
2022-11-03T05:24:55.727Z,9.73
2022-11-03T05:30:00.957Z,10.43
2022-11-03T05:35:03.743Z,11.05
2022-11-03T05:40:16.722Z,8.37
2022-11-03T05:45:29.550Z,8.60
2022-11-03T05:50:34.934Z,8.43
2022-11-03T05:55:37.619Z,9.00
2022-11-03T06:00:47.152Z,8.40
2022-11-03T06:05:50.405Z,8.68
2022-11-03T06:10:54.070Z,9.45
2022-11-03T06:16:06.921Z,9.88
2022-11-03T06:21:18.998Z,8.57
2022-11-03T06:26:27.135Z,9.37
2022-11-03T06:31:31.867Z,9.55
2022-11-03T06:36:37.013Z,9.82
2022-11-03T06:41:38.822Z,8.10
2022-11-03T06:46:40.535Z,8.90
2022-11-03T06:51:42.299Z,9.13
2022-11-03T06:56:43.977Z,8.88
2022-11-03T07:01:48.620Z,8.85
2022-11-03T07:06:53.486Z,8.52
2022-11-03T07:11:58.366Z,8.52
2022-11-03T07:17:07.371Z,9.32
2022-11-03T07:22:17.019Z,9.60
2022-11-03T07:27:37.880Z,9.65
2022-11-03T07:32:39.724Z,10.60
2022-11-03T07:37:41.517Z,10.73
2022-11-03T07:42:43.217Z,9.85
2022-11-03T07:47:44.878Z,10.20
2022-11-03T07:52:46.558Z,9.02
2022-11-03T07:57:48.342Z,9.57
2022-11-03T08:02:56.039Z,9.95
2022-11-03T08:07:57.846Z,10.43
2022-11-03T08:12:59.519Z,10.23
2022-11-03T08:18:01.165Z,10.30
2022-11-03T08:23:24.854Z,9.00
2022-11-03T08:28:25.041Z,9.35
2022-11-03T08:33:30.467Z,10.60
2022-11-03T08:38:32.124Z,10.57
2022-11-03T08:43:33.772Z,11.23
2022-11-03T08:48:35.428Z,10.35
2022-11-03T08:53:37.114Z,10.00
2022-11-03T08:58:38.829Z,10.00
2022-11-03T09:03:41.292Z,10.70
2022-11-03T09:14:04.792Z,10.43
2022-11-03T09:19:06.514Z,11.60
2022-11-03T09:24:08.340Z,11.03
2022-11-03T09:29:10.006Z,10.73
2022-11-03T09:34:11.763Z,11.53
2022-11-03T09:39:13.453Z,9.93
2022-11-03T09:44:15.221Z,10.60
2022-11-03T09:49:18.806Z,12.57
2022-11-03T09:54:20.495Z,11.37
2022-11-03T09:59:23.419Z,12.47
2022-11-03T10:04:29.107Z,11.97
2022-11-03T10:09:30.791Z,12.43
2022-11-03T10:14:32.653Z,12.77
2022-11-03T10:19:34.329Z,13.03
2022-11-03T10:24:36.008Z,12.67
2022-11-03T10:29:39.904Z,13.07
2022-11-03T10:34:43.031Z,12.07
2022-11-03T10:39:45.162Z,12.60
2022-11-03T10:44:47.296Z,12.27
2022-11-03T10:49:49.108Z,12.73
2022-11-03T10:54:53.507Z,12.20
2022-11-03T10:59:55.821Z,13.55
2022-11-03T11:05:02.108Z,12.43
2022-11-03T11:10:19.004Z,13.80
2022-11-03T11:15:37.367Z,15.55
2022-11-03T11:20:40.791Z,14.20
2022-11-03T11:26:08.878Z,14.87
2022-11-03T11:31:22.620Z,14.20
2022-11-03T11:36:25.311Z,13.90
2022-11-03T11:42:04.238Z,12.48
2022-11-03T11:47:42.849Z,12.77
2022-11-03T11:52:50.010Z,13.68
2022-11-03T11:57:53.443Z,13.35
2022-11-03T12:02:55.871Z,13.80
2022-11-03T12:07:58.126Z,13.80
2022-11-03T12:13:00.313Z,13.15
2022-11-03T12:18:39.560Z,13.70
2022-11-03T12:23:44.606Z,12.87
2022-11-03T12:28:46.296Z,14.47
2022-11-03T12:33:48.097Z,13.07
2022-11-03T12:38:49.782Z,14.07
2022-11-03T12:43:53.304Z,13.70
2022-11-03T12:48:55.063Z,13.57
2022-11-03T12:53:56.843Z,14.18
2022-11-03T12:58:58.567Z,12.57
2022-11-03T13:04:00.630Z,14.20
2022-11-03T13:09:02.279Z,14.03
2022-11-03T13:14:04.156Z,14.43
2022-11-03T13:19:05.801Z,12.23
2022-11-03T13:24:07.615Z,12.53
2022-11-03T13:29:09.283Z,13.27
2022-11-03T13:34:10.963Z,13.03
2022-11-03T13:39:12.626Z,12.73
2022-11-03T13:44:14.319Z,13.13
2022-11-03T14:00:03.776Z,12.85
2022-11-03T14:05:08.695Z,12.30
2022-11-03T14:10:12.137Z,10.97
2022-11-03T14:15:13.800Z,14.53
2022-11-03T14:20:15.622Z,13.70
2022-11-03T14:25:17.406Z,11.60
2022-11-03T14:30:19.154Z,12.47
2022-11-03T14:35:20.853Z,14.23
2022-11-03T14:40:22.538Z,12.90
2022-11-03T14:45:24.254Z,13.57
2022-11-03T14:50:26.171Z,13.17
2022-11-03T14:55:27.856Z,13.25
2022-11-03T15:00:29.533Z,11.40
2022-11-03T15:05:31.231Z,13.47
2022-11-03T15:10:32.934Z,12.13
2022-11-03T15:15:34.772Z,12.33
2022-11-03T15:20:36.455Z,12.13
2022-11-03T15:25:38.128Z,12.33
2022-11-03T15:30:39.772Z,11.67
2022-11-03T15:35:41.823Z,12.33
2022-11-03T15:40:43.693Z,12.75
2022-11-03T15:45:45.354Z,12.50
2022-11-03T15:50:47.036Z,13.32
2022-11-03T15:55:48.713Z,14.35
2022-11-03T16:00:50.527Z,11.70
2022-11-03T16:05:52.345Z,12.10
2022-11-03T16:10:57.889Z,12.23
2022-11-03T16:16:00.063Z,12.45
2022-11-03T16:21:01.786Z,12.47
2022-11-03T16:26:03.469Z,11.75
2022-11-03T16:31:05.224Z,11.35
2022-11-03T16:36:07.193Z,11.87
2022-11-03T16:41:09.002Z,12.35
2022-11-03T16:46:10.661Z,16.17
2022-11-03T16:51:12.320Z,15.20
2022-11-03T16:56:14.028Z,11.85
2022-11-03T17:01:15.827Z,11.07
2022-11-03T17:06:17.551Z,12.63
2022-11-03T17:11:19.325Z,15.18
2022-11-03T17:16:21.014Z,15.38
2022-11-03T17:21:22.808Z,12.18
2022-11-03T17:26:34.892Z,14.05
2022-11-03T17:31:38.312Z,14.77
2022-11-03T17:36:40.460Z,12.52
2022-11-03T17:41:42.341Z,12.90
2022-11-03T17:46:44.241Z,13.32
2022-11-03T17:51:45.939Z,13.52
2022-11-03T17:56:47.626Z,12.25
2022-11-03T18:01:49.590Z,14.10
2022-11-03T18:06:51.540Z,14.73
2022-11-03T18:11:53.402Z,13.63
2022-11-03T18:16:55.721Z,14.40
2022-11-03T18:21:57.457Z,15.60
2022-11-03T18:26:59.135Z,14.23
2022-11-03T18:32:00.822Z,12.25
2022-11-03T18:37:04.334Z,15.73
2022-11-03T18:42:12.931Z,13.80
2022-11-03T18:47:14.772Z,15.20
2022-11-03T18:52:17.820Z,16.98
2022-11-03T18:57:23.066Z,14.90
2022-11-03T19:02:25.221Z,15.80
2022-11-03T19:07:32.446Z,14.77
2022-11-03T19:12:38.830Z,14.43
2022-11-03T19:17:40.923Z,16.17
2022-11-03T19:22:42.581Z,14.63
2022-11-03T19:27:46.925Z,15.13
2022-11-03T19:32:55.912Z,16.37
2022-11-03T19:38:09.575Z,14.68
2022-11-03T19:43:12.427Z,15.63
2022-11-03T19:48:30.078Z,14.80
2022-11-03T19:53:32.004Z,15.18
2022-11-03T19:58:33.690Z,16.20
2022-11-03T20:03:35.763Z,15.30
2022-11-03T20:08:37.888Z,15.53
2022-11-03T20:13:43.423Z,15.88
2022-11-03T20:18:45.391Z,15.15
2022-11-03T20:23:47.928Z,16.08
2022-11-03T20:28:49.960Z,15.90
2022-11-03T20:33:51.661Z,17.23
2022-11-03T20:38:54.511Z,15.82
2022-11-03T20:43:56.878Z,16.00
2022-11-03T20:48:59.055Z,15.50
2022-11-03T20:54:03.823Z,15.30
2022-11-03T20:59:05.590Z,14.90
2022-11-03T21:04:14.909Z,14.80
2022-11-03T21:09:18.666Z,16.40
2022-11-03T21:14:29.267Z,13.87
2022-11-03T21:19:32.313Z,15.17
2022-11-03T21:24:34.251Z,15.13
2022-11-03T21:30:05.285Z,14.43
2022-11-03T21:34:58.006Z,13.80
2022-11-03T21:39:59.791Z,15.45
2022-11-03T21:45:01.605Z,15.43
2022-11-03T21:50:03.319Z,15.00
2022-11-03T21:55:05.765Z,13.13
2022-11-03T22:00:08.447Z,14.55
2022-11-03T22:05:11.172Z,15.20
2022-11-03T22:10:12.978Z,13.83
2022-11-03T22:15:15.626Z,14.70
2022-11-03T22:20:17.402Z,13.13
2022-11-03T22:25:19.203Z,10.27
2022-11-03T22:30:20.918Z,10.35
2022-11-03T22:35:24.234Z,7.13
2022-11-03T22:40:25.927Z,7.30
2022-11-03T22:45:28.435Z,7.13
2022-11-03T22:50:30.635Z,4.22
2022-11-03T22:55:32.417Z,4.70
2022-11-03T23:00:34.136Z,2.78
2022-11-03T23:05:36.213Z,3.95
2022-11-03T23:10:38.027Z,2.10
2022-11-03T23:15:39.684Z,2.80
2022-11-03T23:20:41.394Z,2.40
2022-11-03T23:25:43.153Z,1.73
2022-11-03T23:30:44.864Z,1.77
2022-11-03T23:35:46.591Z,1.73
2022-11-03T23:40:48.425Z,1.42
2022-11-03T23:45:50.112Z,1.52
2022-11-03T23:50:52.822Z,2.60
2022-11-03T23:55:54.489Z,1.40
